sensor_id;sensor_type;location;lat;lon;timestamp;P1;durP1;ratioP1;P2;durP2;ratioP2
23714;SDS011;12036;50.858;4.472;2023-03-01T00:01:14;14.20;;;9.32;;
23714;SDS011;12036;50.858;4.472;2023-03-01T00:03:42;12.07;;;9.02;;
23714;SDS011;12036;50.858;4.472;2023-03-01T00:06:08;14.00;;;9.43;;
23714;SDS011;12036;50.858;4.472;2023-03-01T00:08:34;13.65;;;9.10;;
23714;SDS011;12036;50.858;4.472;2023-03-01T00:11:04;16.40;;;8.80;;
23714;SDS011;12036;50.858;4.472;2023-03-01T00:13:32;13.82;;;8.65;;
23714;SDS011;12036;50.858;4.472;2023-03-01T00:15:58;12.88;;;8.90;;
23714;SDS011;12036;50.858;4.472;2023-03-01T00:18:26;13.98;;;8.77;;
23714;SDS011;12036;50.858;4.472;2023-03-01T00:20:52;14.43;;;9.32;;
23714;SDS011;12036;50.858;4.472;2023-03-01T00:23:19;15.82;;;9.40;;
23714;SDS011;12036;50.858;4.472;2023-03-01T00:25:45;14.95;;;9.30;;
23714;SDS011;12036;50.858;4.472;2023-03-01T00:28:10;13.02;;;8.75;;
23714;SDS011;12036;50.858;4.472;2023-03-01T00:30:36;14.23;;;9.15;;
23714;SDS011;12036;50.858;4.472;2023-03-01T00:33:02;14.48;;;8.38;;
23714;SDS011;12036;50.858;4.472;2023-03-01T00:35:27;15.02;;;8.93;;
23714;SDS011;12036;50.858;4.472;2023-03-01T00:37:53;14.38;;;9.15;;
23714;SDS011;12036;50.858;4.472;2023-03-01T00:40:26;13.20;;;9.18;;
23714;SDS011;12036;50.858;4.472;2023-03-01T00:42:53;18.73;;;8.93;;
23714;SDS011;12036;50.858;4.472;2023-03-01T00:45:19;14.00;;;9.00;;
23714;SDS011;12036;50.858;4.472;2023-03-01T00:47:44;13.23;;;9.60;;
23714;SDS011;12036;50.858;4.472;2023-03-01T00:50:10;13.00;;;9.10;;
23714;SDS011;12036;50.858;4.472;2023-03-01T00:52:36;13.35;;;8.95;;
23714;SDS011;12036;50.858;4.472;2023-03-01T00:55:03;17.00;;;9.20;;
23714;SDS011;12036;50.858;4.472;2023-03-01T00:57:29;16.02;;;9.13;;
23714;SDS011;12036;50.858;4.472;2023-03-01T00:59:55;15.02;;;8.98;;
23714;SDS011;12036;50.858;4.472;2023-03-01T01:02:21;14.23;;;8.93;;
23714;SDS011;12036;50.858;4.472;2023-03-01T01:04:47;11.88;;;8.55;;
23714;SDS011;12036;50.858;4.472;2023-03-01T01:07:13;12.88;;;8.88;;
23714;SDS011;12036;50.858;4.472;2023-03-01T01:09:39;15.85;;;9.63;;
23714;SDS011;12036;50.858;4.472;2023-03-01T01:12:05;16.45;;;10.02;;
23714;SDS011;12036;50.858;4.472;2023-03-01T01:14:31;16.88;;;9.65;;
23714;SDS011;12036;50.858;4.472;2023-03-01T01:16:57;15.60;;;9.35;;
23714;SDS011;12036;50.858;4.472;2023-03-01T01:19:23;13.93;;;9.48;;
23714;SDS011;12036;50.858;4.472;2023-03-01T01:21:49;14.10;;;8.75;;
23714;SDS011;12036;50.858;4.472;2023-03-01T01:24:15;13.75;;;8.75;;
23714;SDS011;12036;50.858;4.472;2023-03-01T01:26:41;11.48;;;8.60;;
23714;SDS011;12036;50.858;4.472;2023-03-01T01:29:08;13.68;;;9.60;;
23714;SDS011;12036;50.858;4.472;2023-03-01T01:31:34;13.27;;;8.57;;
23714;SDS011;12036;50.858;4.472;2023-03-01T01:34:02;15.07;;;9.07;;
23714;SDS011;12036;50.858;4.472;2023-03-01T01:36:29;13.77;;;7.95;;
23714;SDS011;12036;50.858;4.472;2023-03-01T01:38:54;13.20;;;9.05;;
23714;SDS011;12036;50.858;4.472;2023-03-01T01:41:21;12.55;;;8.07;;
23714;SDS011;12036;50.858;4.472;2023-03-01T01:43:48;12.35;;;8.90;;
23714;SDS011;12036;50.858;4.472;2023-03-01T01:46:35;12.98;;;8.43;;
23714;SDS011;12036;50.858;4.472;2023-03-01T01:49:05;13.38;;;8.85;;
23714;SDS011;12036;50.858;4.472;2023-03-01T01:51:39;12.35;;;8.75;;
23714;SDS011;12036;50.858;4.472;2023-03-01T01:54:19;15.98;;;8.38;;
23714;SDS011;12036;50.858;4.472;2023-03-01T01:56:57;13.02;;;8.85;;
23714;SDS011;12036;50.858;4.472;2023-03-01T01:59:26;18.13;;;8.60;;
23714;SDS011;12036;50.858;4.472;2023-03-01T02:01:55;12.85;;;8.98;;
23714;SDS011;12036;50.858;4.472;2023-03-01T02:04:23;12.30;;;8.63;;
23714;SDS011;12036;50.858;4.472;2023-03-01T02:07:11;14.43;;;9.23;;
23714;SDS011;12036;50.858;4.472;2023-03-01T02:09:45;13.07;;;8.57;;
23714;SDS011;12036;50.858;4.472;2023-03-01T02:12:13;12.98;;;8.40;;
23714;SDS011;12036;50.858;4.472;2023-03-01T02:14:42;14.50;;;8.80;;
23714;SDS011;12036;50.858;4.472;2023-03-01T02:17:08;12.82;;;8.43;;
23714;SDS011;12036;50.858;4.472;2023-03-01T02:20:38;15.57;;;8.60;;
23714;SDS011;12036;50.858;4.472;2023-03-01T02:22:49;14.18;;;8.73;;
23714;SDS011;12036;50.858;4.472;2023-03-01T02:27:48;13.65;;;9.20;;
23714;SDS011;12036;50.858;4.472;2023-03-01T02:30:25;11.75;;;9.02;;
23714;SDS011;12036;50.858;4.472;2023-03-01T02:32:53;15.75;;;9.15;;
23714;SDS011;12036;50.858;4.472;2023-03-01T02:35:28;15.77;;;8.90;;
23714;SDS011;12036;50.858;4.472;2023-03-01T02:37:59;15.23;;;9.32;;
23714;SDS011;12036;50.858;4.472;2023-03-01T02:40:27;17.23;;;8.85;;
23714;SDS011;12036;50.858;4.472;2023-03-01T02:42:56;13.23;;;8.25;;
23714;SDS011;12036;50.858;4.472;2023-03-01T02:45:23;13.68;;;8.40;;
23714;SDS011;12036;50.858;4.472;2023-03-01T02:47:50;16.63;;;8.85;;
23714;SDS011;12036;50.858;4.472;2023-03-01T02:53:06;12.50;;;8.48;;
23714;SDS011;12036;50.858;4.472;2023-03-01T02:55:37;14.25;;;8.50;;
23714;SDS011;12036;50.858;4.472;2023-03-01T02:58:03;12.25;;;8.35;;
23714;SDS011;12036;50.858;4.472;2023-03-01T03:00:31;17.63;;;8.55;;
23714;SDS011;12036;50.858;4.472;2023-03-01T03:03:04;13.98;;;8.20;;
23714;SDS011;12036;50.858;4.472;2023-03-01T03:05:31;13.02;;;7.75;;
23714;SDS011;12036;50.858;4.472;2023-03-01T03:07:58;12.55;;;7.72;;
23714;SDS011;12036;50.858;4.472;2023-03-01T03:12:54;17.08;;;8.02;;
23714;SDS011;12036;50.858;4.472;2023-03-01T03:15:22;12.57;;;8.02;;
23714;SDS011;12036;50.858;4.472;2023-03-01T03:17:49;13.90;;;8.18;;
23714;SDS011;12036;50.858;4.472;2023-03-01T03:20:16;13.73;;;9.00;;
23714;SDS011;12036;50.858;4.472;2023-03-01T03:22:47;14.03;;;8.40;;
23714;SDS011;12036;50.858;4.472;2023-03-01T03:25:14;15.68;;;8.75;;
23714;SDS011;12036;50.858;4.472;2023-03-01T03:27:40;14.18;;;8.90;;
23714;SDS011;12036;50.858;4.472;2023-03-01T03:30:09;14.90;;;8.60;;
23714;SDS011;12036;50.858;4.472;2023-03-01T03:32:40;17.02;;;8.98;;
23714;SDS011;12036;50.858;4.472;2023-03-01T03:35:08;14.68;;;9.02;;
23714;SDS011;12036;50.858;4.472;2023-03-01T03:37:39;13.43;;;8.68;;
23714;SDS011;12036;50.858;4.472;2023-03-01T03:40:24;10.85;;;7.90;;
23714;SDS011;12036;50.858;4.472;2023-03-01T03:42:50;12.75;;;8.65;;
23714;SDS011;12036;50.858;4.472;2023-03-01T03:45:16;14.65;;;8.60;;
23714;SDS011;12036;50.858;4.472;2023-03-01T03:47:43;16.92;;;8.98;;
23714;SDS011;12036;50.858;4.472;2023-03-01T03:50:12;13.90;;;8.90;;
23714;SDS011;12036;50.858;4.472;2023-03-01T03:52:39;11.35;;;8.43;;
23714;SDS011;12036;50.858;4.472;2023-03-01T03:55:06;15.48;;;8.75;;
23714;SDS011;12036;50.858;4.472;2023-03-01T03:57:38;13.35;;;9.07;;
23714;SDS011;12036;50.858;4.472;2023-03-01T04:00:06;14.23;;;9.10;;
23714;SDS011;12036;50.858;4.472;2023-03-01T04:02:40;14.63;;;8.45;;
23714;SDS011;12036;50.858;4.472;2023-03-01T04:05:07;11.68;;;8.38;;
23714;SDS011;12036;50.858;4.472;2023-03-01T04:07:37;13.93;;;8.93;;
23714;SDS011;12036;50.858;4.472;2023-03-01T04:10:07;14.00;;;8.98;;
23714;SDS011;12036;50.858;4.472;2023-03-01T04:12:37;13.35;;;8.85;;
23714;SDS011;12036;50.858;4.472;2023-03-01T04:15:04;15.13;;;8.80;;
23714;SDS011;12036;50.858;4.472;2023-03-01T04:17:46;14.30;;;8.63;;
23714;SDS011;12036;50.858;4.472;2023-03-01T04:20:13;13.60;;;8.98;;
23714;SDS011;12036;50.858;4.472;2023-03-01T04:22:42;13.15;;;8.27;;
23714;SDS011;12036;50.858;4.472;2023-03-01T04:25:12;16.48;;;8.88;;
23714;SDS011;12036;50.858;4.472;2023-03-01T04:27:39;13.40;;;8.60;;
23714;SDS011;12036;50.858;4.472;2023-03-01T04:30:06;11.65;;;8.18;;
23714;SDS011;12036;50.858;4.472;2023-03-01T04:32:32;13.85;;;8.10;;
23714;SDS011;12036;50.858;4.472;2023-03-01T04:34:58;12.70;;;8.85;;
23714;SDS011;12036;50.858;4.472;2023-03-01T04:37:25;12.63;;;8.23;;
23714;SDS011;12036;50.858;4.472;2023-03-01T04:39:50;13.20;;;8.80;;
23714;SDS011;12036;50.858;4.472;2023-03-01T04:42:16;16.38;;;8.80;;
23714;SDS011;12036;50.858;4.472;2023-03-01T04:44:43;14.45;;;8.73;;
23714;SDS011;12036;50.858;4.472;2023-03-01T04:47:09;12.23;;;8.48;;
23714;SDS011;12036;50.858;4.472;2023-03-01T04:49:35;11.68;;;8.40;;
23714;SDS011;12036;50.858;4.472;2023-03-01T04:52:01;15.35;;;8.82;;
23714;SDS011;12036;50.858;4.472;2023-03-01T04:54:27;14.43;;;8.77;;
23714;SDS011;12036;50.858;4.472;2023-03-01T04:56:54;14.57;;;8.68;;
23714;SDS011;12036;50.858;4.472;2023-03-01T04:59:20;16.15;;;9.05;;
23714;SDS011;12036;50.858;4.472;2023-03-01T05:01:47;12.63;;;8.52;;
23714;SDS011;12036;50.858;4.472;2023-03-01T05:04:14;12.95;;;8.32;;
23714;SDS011;12036;50.858;4.472;2023-03-01T05:06:40;12.98;;;8.35;;
23714;SDS011;12036;50.858;4.472;2023-03-01T05:09:05;13.95;;;8.95;;
23714;SDS011;12036;50.858;4.472;2023-03-01T05:11:31;19.15;;;9.45;;
23714;SDS011;12036;50.858;4.472;2023-03-01T05:14:04;15.45;;;9.35;;
23714;SDS011;12036;50.858;4.472;2023-03-01T05:16:30;14.15;;;8.70;;
23714;SDS011;12036;50.858;4.472;2023-03-01T05:18:57;17.13;;;9.27;;
23714;SDS011;12036;50.858;4.472;2023-03-01T05:21:23;13.88;;;8.65;;
23714;SDS011;12036;50.858;4.472;2023-03-01T05:23:50;15.27;;;8.73;;
23714;SDS011;12036;50.858;4.472;2023-03-01T05:26:17;16.20;;;9.13;;
23714;SDS011;12036;50.858;4.472;2023-03-01T05:28:44;15.13;;;9.30;;
23714;SDS011;12036;50.858;4.472;2023-03-01T05:31:10;15.75;;;8.95;;
23714;SDS011;12036;50.858;4.472;2023-03-01T05:33:36;15.70;;;9.48;;
23714;SDS011;12036;50.858;4.472;2023-03-01T05:36:03;19.67;;;9.70;;
23714;SDS011;12036;50.858;4.472;2023-03-01T05:38:29;14.93;;;9.07;;
23714;SDS011;12036;50.858;4.472;2023-03-01T05:40:55;13.98;;;9.18;;
23714;SDS011;12036;50.858;4.472;2023-03-01T05:43:21;16.75;;;9.43;;
23714;SDS011;12036;50.858;4.472;2023-03-01T05:45:47;12.45;;;8.65;;
23714;SDS011;12036;50.858;4.472;2023-03-01T05:48:13;14.18;;;9.05;;
23714;SDS011;12036;50.858;4.472;2023-03-01T05:50:43;15.85;;;9.15;;
23714;SDS011;12036;50.858;4.472;2023-03-01T05:53:10;12.93;;;8.90;;
23714;SDS011;12036;50.858;4.472;2023-03-01T05:55:38;13.57;;;8.93;;
23714;SDS011;12036;50.858;4.472;2023-03-01T05:58:05;14.93;;;9.10;;
23714;SDS011;12036;50.858;4.472;2023-03-01T06:00:33;14.27;;;8.77;;
23714;SDS011;12036;50.858;4.472;2023-03-01T06:02:59;13.00;;;8.25;;
23714;SDS011;12036;50.858;4.472;2023-03-01T06:05:25;17.35;;;9.18;;
23714;SDS011;12036;50.858;4.472;2023-03-01T06:07:52;14.93;;;9.50;;
23714;SDS011;12036;50.858;4.472;2023-03-01T06:10:18;13.65;;;9.00;;
23714;SDS011;12036;50.858;4.472;2023-03-01T06:12:45;12.73;;;7.90;;
23714;SDS011;12036;50.858;4.472;2023-03-01T06:15:11;13.27;;;8.60;;
23714;SDS011;12036;50.858;4.472;2023-03-01T06:17:39;14.13;;;9.20;;
23714;SDS011;12036;50.858;4.472;2023-03-01T06:20:07;14.73;;;9.18;;
23714;SDS011;12036;50.858;4.472;2023-03-01T06:22:35;13.93;;;9.25;;
23714;SDS011;12036;50.858;4.472;2023-03-01T06:25:01;15.32;;;8.93;;
23714;SDS011;12036;50.858;4.472;2023-03-01T06:27:28;14.63;;;9.07;;
23714;SDS011;12036;50.858;4.472;2023-03-01T06:29:53;12.77;;;9.02;;
23714;SDS011;12036;50.858;4.472;2023-03-01T06:32:19;14.88;;;9.30;;
23714;SDS011;12036;50.858;4.472;2023-03-01T06:34:45;15.77;;;9.68;;
23714;SDS011;12036;50.858;4.472;2023-03-01T06:37:10;15.82;;;9.55;;
23714;SDS011;12036;50.858;4.472;2023-03-01T06:39:36;18.27;;;9.73;;
23714;SDS011;12036;50.858;4.472;2023-03-01T06:42:02;14.35;;;9.30;;
23714;SDS011;12036;50.858;4.472;2023-03-01T06:44:28;15.70;;;9.20;;
23714;SDS011;12036;50.858;4.472;2023-03-01T06:46:54;14.93;;;9.10;;
23714;SDS011;12036;50.858;4.472;2023-03-01T06:49:20;16.17;;;9.77;;
23714;SDS011;12036;50.858;4.472;2023-03-01T06:51:46;16.98;;;9.68;;
23714;SDS011;12036;50.858;4.472;2023-03-01T06:54:11;12.10;;;8.38;;
23714;SDS011;12036;50.858;4.472;2023-03-01T06:56:37;15.38;;;9.63;;
23714;SDS011;12036;50.858;4.472;2023-03-01T06:59:03;16.40;;;9.18;;
23714;SDS011;12036;50.858;4.472;2023-03-01T07:01:29;15.88;;;9.30;;
23714;SDS011;12036;50.858;4.472;2023-03-01T07:03:55;14.02;;;8.90;;
23714;SDS011;12036;50.858;4.472;2023-03-01T07:06:22;16.85;;;9.38;;
23714;SDS011;12036;50.858;4.472;2023-03-01T07:08:47;17.00;;;9.52;;
23714;SDS011;12036;50.858;4.472;2023-03-01T07:11:14;14.90;;;10.18;;
23714;SDS011;12036;50.858;4.472;2023-03-01T07:13:40;16.00;;;10.32;;
23714;SDS011;12036;50.858;4.472;2023-03-01T07:16:06;14.60;;;9.07;;
23714;SDS011;12036;50.858;4.472;2023-03-01T07:18:32;15.65;;;9.23;;
23714;SDS011;12036;50.858;4.472;2023-03-01T07:20:57;17.42;;;9.38;;
23714;SDS011;12036;50.858;4.472;2023-03-01T07:23:23;18.27;;;9.35;;
23714;SDS011;12036;50.858;4.472;2023-03-01T07:25:52;15.65;;;9.13;;
23714;SDS011;12036;50.858;4.472;2023-03-01T07:28:23;12.32;;;8.70;;
23714;SDS011;12036;50.858;4.472;2023-03-01T07:30:49;14.07;;;9.68;;
23714;SDS011;12036;50.858;4.472;2023-03-01T07:33:21;14.27;;;8.82;;
23714;SDS011;12036;50.858;4.472;2023-03-01T07:35:47;16.00;;;9.00;;
23714;SDS011;12036;50.858;4.472;2023-03-01T07:38:12;20.10;;;9.38;;
23714;SDS011;12036;50.858;4.472;2023-03-01T07:40:38;18.23;;;9.43;;
23714;SDS011;12036;50.858;4.472;2023-03-01T07:43:03;16.65;;;8.95;;
23714;SDS011;12036;50.858;4.472;2023-03-01T07:45:29;14.23;;;9.48;;
23714;SDS011;12036;50.858;4.472;2023-03-01T07:47:55;14.05;;;9.00;;
23714;SDS011;12036;50.858;4.472;2023-03-01T07:50:21;13.90;;;9.13;;
23714;SDS011;12036;50.858;4.472;2023-03-01T07:52:48;13.90;;;8.80;;
23714;SDS011;12036;50.858;4.472;2023-03-01T07:55:15;16.17;;;9.23;;
23714;SDS011;12036;50.858;4.472;2023-03-01T07:57:41;12.77;;;8.57;;
23714;SDS011;12036;50.858;4.472;2023-03-01T08:00:07;14.18;;;8.75;;
23714;SDS011;12036;50.858;4.472;2023-03-01T08:02:35;14.70;;;9.35;;
23714;SDS011;12036;50.858;4.472;2023-03-01T08:05:01;13.45;;;8.77;;
23714;SDS011;12036;50.858;4.472;2023-03-01T08:07:26;12.70;;;9.30;;
23714;SDS011;12036;50.858;4.472;2023-03-01T08:09:52;15.45;;;9.30;;
23714;SDS011;12036;50.858;4.472;2023-03-01T08:12:18;15.82;;;9.88;;
23714;SDS011;12036;50.858;4.472;2023-03-01T08:14:43;15.75;;;9.40;;
23714;SDS011;12036;50.858;4.472;2023-03-01T08:17:09;13.73;;;8.55;;
23714;SDS011;12036;50.858;4.472;2023-03-01T08:19:35;13.93;;;9.82;;
23714;SDS011;12036;50.858;4.472;2023-03-01T08:22:01;14.98;;;9.85;;
23714;SDS011;12036;50.858;4.472;2023-03-01T08:24:27;17.33;;;9.90;;
23714;SDS011;12036;50.858;4.472;2023-03-01T08:26:53;15.07;;;9.80;;
23714;SDS011;12036;50.858;4.472;2023-03-01T08:29:19;17.77;;;9.25;;
23714;SDS011;12036;50.858;4.472;2023-03-01T08:31:45;18.40;;;9.45;;
23714;SDS011;12036;50.858;4.472;2023-03-01T08:34:13;17.23;;;9.80;;
23714;SDS011;12036;50.858;4.472;2023-03-01T08:36:41;14.07;;;8.63;;
23714;SDS011;12036;50.858;4.472;2023-03-01T08:39:09;15.77;;;9.43;;
23714;SDS011;12036;50.858;4.472;2023-03-01T08:41:37;16.15;;;9.35;;
23714;SDS011;12036;50.858;4.472;2023-03-01T08:44:03;13.90;;;9.20;;
23714;SDS011;12036;50.858;4.472;2023-03-01T08:46:30;16.10;;;9.98;;
23714;SDS011;12036;50.858;4.472;2023-03-01T08:48:58;18.25;;;9.68;;
23714;SDS011;12036;50.858;4.472;2023-03-01T08:51:24;15.15;;;9.48;;
23714;SDS011;12036;50.858;4.472;2023-03-01T08:53:52;14.93;;;9.75;;
23714;SDS011;12036;50.858;4.472;2023-03-01T08:56:18;15.00;;;9.70;;
23714;SDS011;12036;50.858;4.472;2023-03-01T08:58:45;12.95;;;9.00;;
23714;SDS011;12036;50.858;4.472;2023-03-01T09:01:12;16.50;;;9.63;;
23714;SDS011;12036;50.858;4.472;2023-03-01T09:03:40;16.90;;;9.77;;
23714;SDS011;12036;50.858;4.472;2023-03-01T09:06:06;14.98;;;9.43;;
23714;SDS011;12036;50.858;4.472;2023-03-01T09:08:39;16.27;;;8.98;;
23714;SDS011;12036;50.858;4.472;2023-03-01T09:11:07;16.05;;;9.20;;
23714;SDS011;12036;50.858;4.472;2023-03-01T09:13:34;16.85;;;9.50;;
23714;SDS011;12036;50.858;4.472;2023-03-01T09:16:01;18.13;;;9.65;;
23714;SDS011;12036;50.858;4.472;2023-03-01T09:18:28;14.40;;;9.43;;
23714;SDS011;12036;50.858;4.472;2023-03-01T09:21:04;17.83;;;9.98;;
23714;SDS011;12036;50.858;4.472;2023-03-01T09:23:35;16.20;;;10.05;;
23714;SDS011;12036;50.858;4.472;2023-03-01T09:26:02;14.63;;;9.68;;
23714;SDS011;12036;50.858;4.472;2023-03-01T09:28:28;15.60;;;9.38;;
23714;SDS011;12036;50.858;4.472;2023-03-01T09:30:53;13.60;;;9.30;;
23714;SDS011;12036;50.858;4.472;2023-03-01T09:33:23;16.98;;;10.15;;
23714;SDS011;12036;50.858;4.472;2023-03-01T09:35:49;19.33;;;10.20;;
23714;SDS011;12036;50.858;4.472;2023-03-01T09:38:14;14.30;;;9.18;;
23714;SDS011;12036;50.858;4.472;2023-03-01T09:40:43;17.95;;;10.57;;
23714;SDS011;12036;50.858;4.472;2023-03-01T09:43:19;17.92;;;9.60;;
23714;SDS011;12036;50.858;4.472;2023-03-01T09:45:55;13.50;;;9.48;;
23714;SDS011;12036;50.858;4.472;2023-03-01T09:48:27;17.77;;;10.40;;
23714;SDS011;12036;50.858;4.472;2023-03-01T09:51:02;15.38;;;9.48;;
23714;SDS011;12036;50.858;4.472;2023-03-01T09:53:33;13.13;;;9.00;;
23714;SDS011;12036;50.858;4.472;2023-03-01T10:01:41;14.85;;;9.95;;
23714;SDS011;12036;50.858;4.472;2023-03-01T10:04:27;17.27;;;9.25;;
23714;SDS011;12036;50.858;4.472;2023-03-01T10:09:35;17.40;;;9.98;;
23714;SDS011;12036;50.858;4.472;2023-03-01T10:12:04;19.70;;;9.90;;
23714;SDS011;12036;50.858;4.472;2023-03-01T10:14:57;16.70;;;9.70;;
23714;SDS011;12036;50.858;4.472;2023-03-01T10:17:41;18.08;;;9.63;;
23714;SDS011;12036;50.858;4.472;2023-03-01T10:22:45;13.95;;;8.90;;
23714;SDS011;12036;50.858;4.472;2023-03-01T10:25:20;15.32;;;8.95;;
23714;SDS011;12036;50.858;4.472;2023-03-01T10:27:52;13.23;;;8.65;;
23714;SDS011;12036;50.858;4.472;2023-03-01T10:32:53;13.93;;;9.35;;
23714;SDS011;12036;50.858;4.472;2023-03-01T10:35:20;15.48;;;8.85;;
23714;SDS011;12036;50.858;4.472;2023-03-01T10:40:22;13.90;;;9.27;;
23714;SDS011;12036;50.858;4.472;2023-03-01T10:42:48;16.83;;;9.20;;
23714;SDS011;12036;50.858;4.472;2023-03-01T10:48:03;13.68;;;9.02;;
23714;SDS011;12036;50.858;4.472;2023-03-01T10:50:29;14.38;;;8.77;;
23714;SDS011;12036;50.858;4.472;2023-03-01T10:53:00;13.77;;;8.68;;
23714;SDS011;12036;50.858;4.472;2023-03-01T10:55:35;14.43;;;9.07;;
23714;SDS011;12036;50.858;4.472;2023-03-01T10:58:09;15.18;;;8.95;;
23714;SDS011;12036;50.858;4.472;2023-03-01T11:03:28;14.60;;;8.63;;
23714;SDS011;12036;50.858;4.472;2023-03-01T11:06:00;13.95;;;8.43;;
23714;SDS011;12036;50.858;4.472;2023-03-01T11:08:30;15.80;;;8.07;;
23714;SDS011;12036;50.858;4.472;2023-03-01T11:11:13;13.27;;;8.18;;
23714;SDS011;12036;50.858;4.472;2023-03-01T11:16:22;14.90;;;8.75;;
23714;SDS011;12036;50.858;4.472;2023-03-01T11:18:58;13.45;;;8.38;;
23714;SDS011;12036;50.858;4.472;2023-03-01T11:21:33;10.55;;;8.25;;
23714;SDS011;12036;50.858;4.472;2023-03-01T11:24:03;14.70;;;8.57;;
23714;SDS011;12036;50.858;4.472;2023-03-01T11:26:34;18.83;;;8.85;;
23714;SDS011;12036;50.858;4.472;2023-03-01T11:29:04;12.73;;;7.68;;
23714;SDS011;12036;50.858;4.472;2023-03-01T11:31:37;12.52;;;7.65;;
23714;SDS011;12036;50.858;4.472;2023-03-01T11:36:54;16.42;;;7.60;;
23714;SDS011;12036;50.858;4.472;2023-03-01T11:42:35;11.60;;;6.95;;
23714;SDS011;12036;50.858;4.472;2023-03-01T11:45:12;15.38;;;7.22;;
23714;SDS011;12036;50.858;4.472;2023-03-01T11:50:49;12.18;;;7.38;;
23714;SDS011;12036;50.858;4.472;2023-03-01T11:53:20;12.63;;;8.02;;
23714;SDS011;12036;50.858;4.472;2023-03-01T12:03:59;12.90;;;7.60;;
23714;SDS011;12036;50.858;4.472;2023-03-01T12:18:08;11.85;;;7.35;;
23714;SDS011;12036;50.858;4.472;2023-03-01T12:21:14;10.80;;;7.38;;
23714;SDS011;12036;50.858;4.472;2023-03-01T12:23:59;13.57;;;7.30;;
23714;SDS011;12036;50.858;4.472;2023-03-01T12:35:25;12.65;;;7.80;;
23714;SDS011;12036;50.858;4.472;2023-03-01T12:50:55;10.95;;;7.15;;
23714;SDS011;12036;50.858;4.472;2023-03-01T12:56:01;11.32;;;7.43;;
23714;SDS011;12036;50.858;4.472;2023-03-01T13:01:08;11.23;;;7.72;;
23714;SDS011;12036;50.858;4.472;2023-03-01T13:09:31;9.75;;;7.28;;
23714;SDS011;12036;50.858;4.472;2023-03-01T13:15:32;12.48;;;7.07;;
23714;SDS011;12036;50.858;4.472;2023-03-01T13:25:35;10.95;;;7.50;;
23714;SDS011;12036;50.858;4.472;2023-03-01T13:31:03;12.18;;;8.10;;
23714;SDS011;12036;50.858;4.472;2023-03-01T13:35:59;10.98;;;7.38;;
23714;SDS011;12036;50.858;4.472;2023-03-01T13:41:09;13.23;;;7.18;;
23714;SDS011;12036;50.858;4.472;2023-03-01T13:43:36;8.50;;;6.43;;
23714;SDS011;12036;50.858;4.472;2023-03-01T13:46:15;11.07;;;6.95;;
23714;SDS011;12036;50.858;4.472;2023-03-01T13:51:12;10.43;;;6.90;;
23714;SDS011;12036;50.858;4.472;2023-03-01T13:53:40;10.55;;;6.75;;
23714;SDS011;12036;50.858;4.472;2023-03-01T13:56:17;9.73;;;6.82;;
23714;SDS011;12036;50.858;4.472;2023-03-01T13:59:01;10.55;;;6.85;;
23714;SDS011;12036;50.858;4.472;2023-03-01T14:01:31;11.57;;;7.50;;
23714;SDS011;12036;50.858;4.472;2023-03-01T14:03:59;14.50;;;7.57;;
23714;SDS011;12036;50.858;4.472;2023-03-01T14:06:25;10.45;;;7.30;;
23714;SDS011;12036;50.858;4.472;2023-03-01T14:19:46;13.40;;;7.47;;
23714;SDS011;12036;50.858;4.472;2023-03-01T14:24:51;12.25;;;7.68;;
23714;SDS011;12036;50.858;4.472;2023-03-01T14:27:26;12.98;;;7.68;;
23714;SDS011;12036;50.858;4.472;2023-03-01T14:30:03;12.43;;;7.45;;
23714;SDS011;12036;50.858;4.472;2023-03-01T14:32:37;11.30;;;7.90;;
23714;SDS011;12036;50.858;4.472;2023-03-01T14:35:19;12.98;;;8.02;;
23714;SDS011;12036;50.858;4.472;2023-03-01T14:37:46;11.82;;;7.70;;
23714;SDS011;12036;50.858;4.472;2023-03-01T14:40:25;10.93;;;6.95;;
23714;SDS011;12036;50.858;4.472;2023-03-01T14:42:54;11.95;;;7.28;;
23714;SDS011;12036;50.858;4.472;2023-03-01T14:45:22;16.05;;;7.28;;
23714;SDS011;12036;50.858;4.472;2023-03-01T14:47:51;11.90;;;7.25;;
23714;SDS011;12036;50.858;4.472;2023-03-01T14:52:52;11.90;;;7.28;;
23714;SDS011;12036;50.858;4.472;2023-03-01T14:58:05;9.68;;;6.97;;
23714;SDS011;12036;50.858;4.472;2023-03-01T15:00:34;11.10;;;7.22;;
23714;SDS011;12036;50.858;4.472;2023-03-01T15:03:04;17.27;;;8.07;;
23714;SDS011;12036;50.858;4.472;2023-03-01T15:05:38;11.95;;;7.45;;
23714;SDS011;12036;50.858;4.472;2023-03-01T15:08:05;11.90;;;7.60;;
23714;SDS011;12036;50.858;4.472;2023-03-01T15:10:33;10.98;;;6.95;;
23714;SDS011;12036;50.858;4.472;2023-03-01T15:13:10;12.07;;;7.03;;
23714;SDS011;12036;50.858;4.472;2023-03-01T15:15:47;12.48;;;7.35;;
23714;SDS011;12036;50.858;4.472;2023-03-01T15:18:18;10.70;;;7.07;;
23714;SDS011;12036;50.858;4.472;2023-03-01T15:20:51;11.70;;;7.55;;
23714;SDS011;12036;50.858;4.472;2023-03-01T15:25:51;12.07;;;7.63;;
23714;SDS011;12036;50.858;4.472;2023-03-01T15:28:22;11.07;;;7.50;;
23714;SDS011;12036;50.858;4.472;2023-03-01T15:31:12;10.98;;;7.35;;
23714;SDS011;12036;50.858;4.472;2023-03-01T15:33:46;13.68;;;7.50;;
23714;SDS011;12036;50.858;4.472;2023-03-01T15:36:32;11.88;;;6.93;;
23714;SDS011;12036;50.858;4.472;2023-03-01T15:41:32;14.02;;;7.50;;
23714;SDS011;12036;50.858;4.472;2023-03-01T15:44:16;12.50;;;7.68;;
23714;SDS011;12036;50.858;4.472;2023-03-01T15:46:46;10.98;;;6.93;;
23714;SDS011;12036;50.858;4.472;2023-03-01T15:54:35;16.90;;;7.72;;
23714;SDS011;12036;50.858;4.472;2023-03-01T15:57:03;15.55;;;7.53;;
23714;SDS011;12036;50.858;4.472;2023-03-01T15:59:28;10.98;;;7.25;;
23714;SDS011;12036;50.858;4.472;2023-03-01T16:01:54;11.40;;;7.43;;
23714;SDS011;12036;50.858;4.472;2023-03-01T16:04:19;13.35;;;7.20;;
23714;SDS011;12036;50.858;4.472;2023-03-01T16:06:52;11.07;;;7.05;;
23714;SDS011;12036;50.858;4.472;2023-03-01T16:09:22;11.77;;;6.72;;
23714;SDS011;12036;50.858;4.472;2023-03-01T16:11:49;9.13;;;6.28;;
23714;SDS011;12036;50.858;4.472;2023-03-01T16:14:16;11.35;;;6.57;;
23714;SDS011;12036;50.858;4.472;2023-03-01T16:16:42;11.27;;;6.70;;
23714;SDS011;12036;50.858;4.472;2023-03-01T16:19:08;11.38;;;6.65;;
23714;SDS011;12036;50.858;4.472;2023-03-01T16:21:35;10.50;;;6.80;;
23714;SDS011;12036;50.858;4.472;2023-03-01T16:24:01;10.55;;;6.22;;
23714;SDS011;12036;50.858;4.472;2023-03-01T16:26:26;10.15;;;6.80;;
23714;SDS011;12036;50.858;4.472;2023-03-01T16:28:56;17.05;;;8.32;;
23714;SDS011;12036;50.858;4.472;2023-03-01T16:31:23;14.93;;;8.07;;
23714;SDS011;12036;50.858;4.472;2023-03-01T16:33:52;12.80;;;7.78;;
23714;SDS011;12036;50.858;4.472;2023-03-01T16:36:19;9.13;;;6.18;;
23714;SDS011;12036;50.858;4.472;2023-03-01T16:38:45;16.90;;;8.90;;
23714;SDS011;12036;50.858;4.472;2023-03-01T16:41:12;9.52;;;5.88;;
23714;SDS011;12036;50.858;4.472;2023-03-01T16:43:40;12.30;;;6.85;;
23714;SDS011;12036;50.858;4.472;2023-03-01T16:46:14;14.57;;;7.75;;
23714;SDS011;12036;50.858;4.472;2023-03-01T16:48:41;9.55;;;6.22;;
23714;SDS011;12036;50.858;4.472;2023-03-01T16:51:07;12.25;;;6.70;;
23714;SDS011;12036;50.858;4.472;2023-03-01T16:53:33;12.40;;;7.45;;
23714;SDS011;12036;50.858;4.472;2023-03-01T16:56:04;20.40;;;10.00;;
23714;SDS011;12036;50.858;4.472;2023-03-01T16:58:32;10.77;;;6.53;;
23714;SDS011;12036;50.858;4.472;2023-03-01T17:01:03;17.55;;;9.32;;
23714;SDS011;12036;50.858;4.472;2023-03-01T17:03:30;11.50;;;7.00;;
23714;SDS011;12036;50.858;4.472;2023-03-01T17:05:56;10.43;;;6.38;;
23714;SDS011;12036;50.858;4.472;2023-03-01T17:08:22;9.30;;;6.00;;